sensor_id;sensor_type;location;lat;lon;timestamp;pressure;altitude;pressure_sealevel;temperature;humidity
73457;BME280;61691;53.072;6.582;2023-01-15T00:01:02;99497.66;;;6.91;79.88
73457;BME280;61691;53.072;6.582;2023-01-15T00:03:30;99464.44;;;6.71;79.74
73457;BME280;61691;53.072;6.582;2023-01-15T00:06:01;99495.69;;;6.93;79.65
73457;BME280;61691;53.072;6.582;2023-01-15T00:08:29;99503.19;;;6.88;79.29
73457;BME280;61691;53.072;6.582;2023-01-15T00:10:55;99470.00;;;6.68;79.39
73457;BME280;61691;53.072;6.582;2023-01-15T00:13:22;99502.22;;;6.89;79.51
73457;BME280;61691;53.072;6.582;2023-01-15T00:15:49;99466.41;;;6.69;79.64
73457;BME280;61691;53.072;6.582;2023-01-15T00:18:16;99498.50;;;6.82;79.07
73457;BME280;61691;53.072;6.582;2023-01-15T00:20:43;99475.53;;;6.65;78.43
73457;BME280;61691;53.072;6.582;2023-01-15T00:23:09;99501.16;;;6.82;79.31
73457;BME280;61691;53.072;6.582;2023-01-15T00:25:56;99488.81;;;6.73;79.45
73457;BME280;61691;53.072;6.582;2023-01-15T00:28:41;99480.53;;;6.68;78.62
73457;BME280;61691;53.072;6.582;2023-01-15T00:31:08;99515.00;;;6.84;78.86
73457;BME280;61691;53.072;6.582;2023-01-15T00:33:35;99519.28;;;6.85;79.19
73457;BME280;61691;53.072;6.582;2023-01-15T00:36:02;99515.00;;;6.84;78.42
73457;BME280;61691;53.072;6.582;2023-01-15T00:38:29;99517.34;;;6.87;78.77
73457;BME280;61691;53.072;6.582;2023-01-15T00:40:55;99499.09;;;6.76;78.54
73457;BME280;61691;53.072;6.582;2023-01-15T00:43:22;99517.66;;;6.84;78.42
73457;BME280;61691;53.072;6.582;2023-01-15T00:45:49;99479.16;;;6.64;78.36
73457;BME280;61691;53.072;6.582;2023-01-15T00:48:16;99483.31;;;6.66;78.36
73457;BME280;61691;53.072;6.582;2023-01-15T00:50:43;99513.34;;;6.83;78.33
73457;BME280;61691;53.072;6.582;2023-01-15T00:53:10;99486.78;;;6.67;78.59
73457;BME280;61691;53.072;6.582;2023-01-15T00:55:36;99520.41;;;6.82;78.08
73457;BME280;61691;53.072;6.582;2023-01-15T00:58:03;99473.63;;;6.57;78.41
73457;BME280;61691;53.072;6.582;2023-01-15T01:00:30;99470.28;;;6.55;78.48
73457;BME280;61691;53.072;6.582;2023-01-15T01:02:57;99514.31;;;6.82;78.41
73457;BME280;61691;53.072;6.582;2023-01-15T01:05:24;99517.66;;;6.84;78.02
73457;BME280;61691;53.072;6.582;2023-01-15T01:07:51;99462.97;;;6.49;77.76
73457;BME280;61691;53.072;6.582;2023-01-15T01:10:17;99507.66;;;6.78;78.18
73457;BME280;61691;53.072;6.582;2023-01-15T01:12:44;99496.16;;;6.79;77.95
73457;BME280;61691;53.072;6.582;2023-01-15T01:15:11;99514.00;;;6.85;77.63
73457;BME280;61691;53.072;6.582;2023-01-15T01:17:38;99498.78;;;6.79;77.53
73457;BME280;61691;53.072;6.582;2023-01-15T01:20:05;99507.09;;;6.84;78.11
73457;BME280;61691;53.072;6.582;2023-01-15T01:22:32;99504.03;;;6.88;77.66
73457;BME280;61691;53.072;6.582;2023-01-15T01:24:59;99468.34;;;6.67;77.42
73457;BME280;61691;53.072;6.582;2023-01-15T01:27:26;99505.44;;;6.83;77.42
73457;BME280;61691;53.072;6.582;2023-01-15T01:29:52;99514.56;;;6.88;77.67
73457;BME280;61691;53.072;6.582;2023-01-15T01:32:19;99510.41;;;6.86;77.19
73457;BME280;61691;53.072;6.582;2023-01-15T01:34:46;99498.22;;;6.85;77.23
73457;BME280;61691;53.072;6.582;2023-01-15T01:37:13;99481.19;;;6.79;77.52
73457;BME280;61691;53.072;6.582;2023-01-15T01:39:40;99489.91;;;6.80;76.99
73457;BME280;61691;53.072;6.582;2023-01-15T01:42:11;99512.63;;;6.90;76.62
73457;BME280;61691;53.072;6.582;2023-01-15T01:47:07;99514.44;;;6.90;76.81
73457;BME280;61691;53.072;6.582;2023-01-15T01:49:37;99493.81;;;6.76;77.24
73457;BME280;61691;53.072;6.582;2023-01-15T01:52:07;99501.97;;;6.82;76.89
73457;BME280;61691;53.072;6.582;2023-01-15T01:54:35;99512.09;;;6.77;76.68
73457;BME280;61691;53.072;6.582;2023-01-15T01:57:05;99498.53;;;6.63;76.72
73457;BME280;61691;53.072;6.582;2023-01-15T01:59:33;99529.28;;;6.81;76.82
73457;BME280;61691;53.072;6.582;2023-01-15T02:01:59;99486.66;;;6.58;76.20
73457;BME280;61691;53.072;6.582;2023-01-15T02:04:28;99512.91;;;6.78;76.24
73457;BME280;61691;53.072;6.582;2023-01-15T02:06:57;99512.66;;;6.71;76.30
73457;BME280;61691;53.072;6.582;2023-01-15T02:09:26;99512.97;;;6.68;76.13
73457;BME280;61691;53.072;6.582;2023-01-15T02:11:56;99517.53;;;6.76;76.13
73457;BME280;61691;53.072;6.582;2023-01-15T02:17:09;99521.00;;;6.76;76.53
73457;BME280;61691;53.072;6.582;2023-01-15T02:20:02;99525.44;;;6.76;76.24
73457;BME280;61691;53.072;6.582;2023-01-15T02:28:33;99500.34;;;6.72;75.82
73457;BME280;61691;53.072;6.582;2023-01-15T02:31:18;99503.94;;;6.71;76.07
73457;BME280;61691;53.072;6.582;2023-01-15T02:34:07;99504.38;;;6.66;75.65
73457;BME280;61691;53.072;6.582;2023-01-15T02:36:39;99489.69;;;6.64;76.11
73457;BME280;61691;53.072;6.582;2023-01-15T02:39:11;99511.00;;;6.80;75.45
73457;BME280;61691;53.072;6.582;2023-01-15T02:41:44;99493.53;;;6.69;75.26
73457;BME280;61691;53.072;6.582;2023-01-15T02:44:14;99511.25;;;6.86;75.59
73457;BME280;61691;53.072;6.582;2023-01-15T02:46:43;99498.78;;;6.79;75.48
73457;BME280;61691;53.072;6.582;2023-01-15T02:49:14;99461.69;;;6.63;75.76
73457;BME280;61691;53.072;6.582;2023-01-15T02:51:50;99468.22;;;6.58;75.80
73457;BME280;61691;53.072;6.582;2023-01-15T02:54:19;99503.19;;;6.88;75.14
73457;BME280;61691;53.072;6.582;2023-01-15T02:56:48;99489.91;;;6.80;75.47
73457;BME280;61691;53.072;6.582;2023-01-15T02:59:25;99463.78;;;6.69;75.49
73457;BME280;61691;53.072;6.582;2023-01-15T03:01:57;99496.00;;;6.90;75.61
73457;BME280;61691;53.072;6.582;2023-01-15T03:04:34;99492.66;;;6.88;75.22
73457;BME280;61691;53.072;6.582;2023-01-15T03:07:05;99500.28;;;6.91;75.58
73457;BME280;61691;53.072;6.582;2023-01-15T03:09:34;99457.38;;;6.71;75.01
73457;BME280;61691;53.072;6.582;2023-01-15T03:15:02;99491.31;;;6.84;74.93
73457;BME280;61691;53.072;6.582;2023-01-15T03:17:37;99460.72;;;6.64;74.88
73457;BME280;61691;53.072;6.582;2023-01-15T03:20:12;99495.03;;;6.81;74.56
73457;BME280;61691;53.072;6.582;2023-01-15T03:22:45;99467.50;;;6.76;74.92
73457;BME280;61691;53.072;6.582;2023-01-15T03:25:24;99469.03;;;6.69;74.92
73457;BME280;61691;53.072;6.582;2023-01-15T03:27:53;99479.97;;;6.74;74.63
73457;BME280;61691;53.072;6.582;2023-01-15T03:30:22;99456.72;;;6.59;74.20
73457;BME280;61691;53.072;6.582;2023-01-15T03:32:58;99477.47;;;6.72;74.28
73457;BME280;61691;53.072;6.582;2023-01-15T03:35:43;99474.72;;;6.64;74.16
73457;BME280;61691;53.072;6.582;2023-01-15T03:38:11;99475.94;;;6.70;74.32
73457;BME280;61691;53.072;6.582;2023-01-15T03:40:47;99473.88;;;6.64;74.34
73457;BME280;61691;53.072;6.582;2023-01-15T03:43:19;99473.31;;;6.70;74.36
73457;BME280;61691;53.072;6.582;2023-01-15T03:46:11;99453.25;;;6.59;74.18
73457;BME280;61691;53.072;6.582;2023-01-15T03:51:23;99452.44;;;6.58;74.50
73457;BME280;61691;53.072;6.582;2023-01-15T03:53:56;99444.66;;;6.57;74.31
73457;BME280;61691;53.072;6.582;2023-01-15T03:56:31;99454.47;;;6.65;74.27
73457;BME280;61691;53.072;6.582;2023-01-15T03:59:09;99435.41;;;6.53;74.17
73457;BME280;61691;53.072;6.582;2023-01-15T04:01:40;99461.13;;;6.69;73.86
73457;BME280;61691;53.072;6.582;2023-01-15T04:04:09;99453.91;;;6.71;73.77
73457;BME280;61691;53.072;6.582;2023-01-15T04:06:38;99429.84;;;6.56;73.91
73457;BME280;61691;53.072;6.582;2023-01-15T04:09:08;99458.19;;;6.72;73.83
73457;BME280;61691;53.072;6.582;2023-01-15T04:11:36;99436.91;;;6.55;73.72
73457;BME280;61691;53.072;6.582;2023-01-15T04:14:03;99455.88;;;6.69;73.55
73457;BME280;61691;53.072;6.582;2023-01-15T04:16:31;99437.59;;;6.57;73.34
73457;BME280;61691;53.072;6.582;2023-01-15T04:18:59;99453.25;;;6.69;73.66
73457;BME280;61691;53.072;6.582;2023-01-15T04:21:25;99444.53;;;6.58;73.62
73457;BME280;61691;53.072;6.582;2023-01-15T04:23:52;99430.69;;;6.47;73.33
73457;BME280;61691;53.072;6.582;2023-01-15T04:26:19;99446.19;;;6.59;73.40
73457;BME280;61691;53.072;6.582;2023-01-15T04:28:46;99433.88;;;6.50;73.63
73457;BME280;61691;53.072;6.582;2023-01-15T04:31:13;99419.63;;;6.43;73.70
73457;BME280;61691;53.072;6.582;2023-01-15T04:33:40;99451.19;;;6.53;73.79
73457;BME280;61691;53.072;6.582;2023-01-15T04:36:07;99435.41;;;6.53;73.48
73457;BME280;61691;53.072;6.582;2023-01-15T04:38:37;99416.88;;;6.35;73.62
73457;BME280;61691;53.072;6.582;2023-01-15T04:41:04;99367.34;;;6.11;73.55
73457;BME280;61691;53.072;6.582;2023-01-15T04:43:50;99403.03;;;6.33;73.23
73457;BME280;61691;53.072;6.582;2023-01-15T04:46:37;99435.16;;;6.46;73.67
73457;BME280;61691;53.072;6.582;2023-01-15T04:49:08;99420.22;;;6.37;73.44
73457;BME280;61691;53.072;6.582;2023-01-15T04:51:35;99435.69;;;6.40;73.36
73457;BME280;61691;53.072;6.582;2023-01-15T04:54:03;99432.78;;;6.43;73.14
73457;BME280;61691;53.072;6.582;2023-01-15T04:56:31;99419.25;;;6.29;73.34
73457;BME280;61691;53.072;6.582;2023-01-15T04:58:59;99430.88;;;6.36;73.10
73457;BME280;61691;53.072;6.582;2023-01-15T05:01:27;99452.06;;;6.44;73.25
73457;BME280;61691;53.072;6.582;2023-01-15T05:03:54;99442.94;;;6.38;72.88
73457;BME280;61691;53.072;6.582;2023-01-15T05:06:21;99433.22;;;6.39;73.16
73457;BME280;61691;53.072;6.582;2023-01-15T05:08:48;99434.34;;;6.36;72.83
73457;BME280;61691;53.072;6.582;2023-01-15T05:11:15;99421.75;;;6.30;73.09
73457;BME280;61691;53.072;6.582;2023-01-15T05:13:41;99432.09;;;6.32;73.19
73457;BME280;61691;53.072;6.582;2023-01-15T05:16:15;99433.63;;;6.34;72.85
73457;BME280;61691;53.072;6.582;2023-01-15T05:18:44;99435.75;;;6.31;73.03
73457;BME280;61691;53.072;6.582;2023-01-15T05:21:22;99422.97;;;6.26;72.39
73457;BME280;61691;53.072;6.582;2023-01-15T05:23:51;99426.31;;;6.28;72.59
73457;BME280;61691;53.072;6.582;2023-01-15T05:26:19;99402.38;;;6.12;72.66
73457;BME280;61691;53.072;6.582;2023-01-15T05:28:47;99419.53;;;6.26;72.95
73457;BME280;61691;53.072;6.582;2023-01-15T05:31:17;99420.50;;;6.25;72.96
73457;BME280;61691;53.072;6.582;2023-01-15T05:33:45;99411.22;;;6.20;72.36
73457;BME280;61691;53.072;6.582;2023-01-15T05:36:15;99413.88;;;6.20;72.40
73457;BME280;61691;53.072;6.582;2023-01-15T05:38:43;99411.94;;;6.13;72.28
73457;BME280;61691;53.072;6.582;2023-01-15T05:41:12;99410.28;;;6.12;72.55
73457;BME280;61691;53.072;6.582;2023-01-15T05:44:03;99413.34;;;6.07;72.75
73457;BME280;61691;53.072;6.582;2023-01-15T05:46:32;99402.56;;;6.01;72.35
73457;BME280;61691;53.072;6.582;2023-01-15T05:49:06;99408.09;;;5.98;72.60
73457;BME280;61691;53.072;6.582;2023-01-15T05:51:34;99393.41;;;5.95;72.30
73457;BME280;61691;53.072;6.582;2023-01-15T05:54:02;99389.69;;;5.88;72.72
73457;BME280;61691;53.072;6.582;2023-01-15T05:56:29;99394.25;;;5.86;72.49
73457;BME280;61691;53.072;6.582;2023-01-15T05:58:56;99388.84;;;5.88;72.19
73457;BME280;61691;53.072;6.582;2023-01-15T06:01:23;99404.75;;;5.96;72.48
73457;BME280;61691;53.072;6.582;2023-01-15T06:03:50;99400.06;;;5.90;72.39
73457;BME280;61691;53.072;6.582;2023-01-15T06:06:19;99395.38;;;5.93;71.65
73457;BME280;61691;53.072;6.582;2023-01-15T06:08:46;99386.91;;;5.90;71.87
73457;BME280;61691;53.072;6.582;2023-01-15T06:11:12;99383.59;;;5.88;71.74
73457;BME280;61691;53.072;6.582;2023-01-15T06:13:39;99393.69;;;5.92;71.48
73457;BME280;61691;53.072;6.582;2023-01-15T06:16:09;99381.22;;;5.84;71.65
73457;BME280;61691;53.072;6.582;2023-01-15T06:18:37;99398.97;;;5.92;71.36
73457;BME280;61691;53.072;6.582;2023-01-15T06:21:06;99380.94;;;5.78;71.49
73457;BME280;61691;53.072;6.582;2023-01-15T06:23:34;99401.13;;;5.87;71.21
73457;BME280;61691;53.072;6.582;2023-01-15T06:26:12;99371.81;;;5.72;71.52
73457;BME280;61691;53.072;6.582;2023-01-15T06:28:40;99372.38;;;5.66;71.46
73457;BME280;61691;53.072;6.582;2023-01-15T06:31:10;99374.59;;;5.61;71.50
73457;BME280;61691;53.072;6.582;2023-01-15T06:33:37;99402.94;;;5.77;71.29
73457;BME280;61691;53.072;6.582;2023-01-15T06:36:09;99396.16;;;5.74;71.26
73457;BME280;61691;53.072;6.582;2023-01-15T06:38:37;99381.38;;;5.64;71.45
73457;BME280;61691;53.072;6.582;2023-01-15T06:41:05;99371.81;;;5.53;71.52
73457;BME280;61691;53.072;6.582;2023-01-15T06:43:55;99398.38;;;5.69;71.62
73457;BME280;61691;53.072;6.582;2023-01-15T06:46:44;99400.06;;;5.70;71.73
73457;BME280;61691;53.072;6.582;2023-01-15T06:49:31;99392.16;;;5.70;71.71
73457;BME280;61691;53.072;6.582;2023-01-15T06:51:58;99397.16;;;5.64;71.71
73457;BME280;61691;53.072;6.582;2023-01-15T06:54:25;99385.38;;;5.58;71.34
73457;BME280;61691;53.072;6.582;2023-01-15T06:56:52;99405.56;;;5.67;71.72
73457;BME280;61691;53.072;6.582;2023-01-15T06:59:19;99345.00;;;5.40;71.36
73457;BME280;61691;53.072;6.582;2023-01-15T07:01:46;99385.09;;;5.61;71.39
73457;BME280;61691;53.072;6.582;2023-01-15T07:04:14;99361.88;;;5.47;71.46
73457;BME280;61691;53.072;6.582;2023-01-15T07:06:40;99368.34;;;5.53;71.79
73457;BME280;61691;53.072;6.582;2023-01-15T07:09:07;99380.69;;;5.62;71.86
73457;BME280;61691;53.072;6.582;2023-01-15T07:11:34;99347.47;;;5.41;72.00
73457;BME280;61691;53.072;6.582;2023-01-15T07:14:01;99361.88;;;5.47;71.99
73457;BME280;61691;53.072;6.582;2023-01-15T07:16:34;99384.53;;;5.58;71.52
73457;BME280;61691;53.072;6.582;2023-01-15T07:19:02;99349.97;;;5.33;71.12
73457;BME280;61691;53.072;6.582;2023-01-15T07:21:29;99396.19;;;5.55;70.50
73457;BME280;61691;53.072;6.582;2023-01-15T07:23:59;99401.13;;;5.58;70.91
73457;BME280;61691;53.072;6.582;2023-01-15T07:26:27;99380.25;;;5.47;70.77
73457;BME280;61691;53.072;6.582;2023-01-15T07:28:54;99375.97;;;5.46;70.67
73457;BME280;61691;53.072;6.582;2023-01-15T07:31:20;99354.66;;;5.39;70.75
73457;BME280;61691;53.072;6.582;2023-01-15T07:33:47;99382.06;;;5.56;70.64
73457;BME280;61691;53.072;6.582;2023-01-15T07:36:14;99355.78;;;5.47;70.80
73457;BME280;61691;53.072;6.582;2023-01-15T07:38:41;99372.94;;;5.60;70.45
73457;BME280;61691;53.072;6.582;2023-01-15T07:41:08;99369.19;;;5.63;70.58
73457;BME280;61691;53.072;6.582;2023-01-15T07:43:53;99362.41;;;5.60;70.15
73457;BME280;61691;53.072;6.582;2023-01-15T07:46:39;99374.72;;;5.69;69.70
73457;BME280;61691;53.072;6.582;2023-01-15T07:49:24;99375.97;;;5.75;69.16
73457;BME280;61691;53.072;6.582;2023-01-15T07:52:20;99366.56;;;5.63;69.13
73457;BME280;61691;53.072;6.582;2023-01-15T07:54:48;99365.44;;;5.65;68.59
73457;BME280;61691;53.072;6.582;2023-01-15T07:57:18;99379.56;;;5.64;68.15
73457;BME280;61691;53.072;6.582;2023-01-15T07:59:46;99345.81;;;5.50;67.63
73457;BME280;61691;53.072;6.582;2023-01-15T08:02:12;99377.34;;;5.60;67.96
73457;BME280;61691;53.072;6.582;2023-01-15T08:04:40;99380.09;;;5.58;68.13
73457;BME280;61691;53.072;6.582;2023-01-15T08:07:06;99355.22;;;5.43;67.79
73457;BME280;61691;53.072;6.582;2023-01-15T08:09:33;99352.44;;;5.35;67.86
73457;BME280;61691;53.072;6.582;2023-01-15T08:12:02;99382.47;;;5.61;68.05
73457;BME280;61691;53.072;6.582;2023-01-15T08:14:48;99358.94;;;5.50;67.61
73457;BME280;61691;53.072;6.582;2023-01-15T08:17:37;99362.41;;;5.51;67.70
73457;BME280;61691;53.072;6.582;2023-01-15T08:20:08;99377.22;;;5.61;67.67
73457;BME280;61691;53.072;6.582;2023-01-15T08:22:35;99368.09;;;5.56;66.78
73457;BME280;61691;53.072;6.582;2023-01-15T08:25:04;99348.28;;;5.42;67.49
73457;BME280;61691;53.072;6.582;2023-01-15T08:27:31;99364.34;;;5.58;67.85
73457;BME280;61691;53.072;6.582;2023-01-15T08:29:58;99372.09;;;5.69;67.74
73457;BME280;61691;53.072;6.582;2023-01-15T08:32:25;99258.97;;;5.13;67.74
73457;BME280;61691;53.072;6.582;2023-01-15T08:34:52;99335.97;;;5.71;67.45
73457;BME280;61691;53.072;6.582;2023-01-15T08:37:19;99369.59;;;5.77;67.37
73457;BME280;61691;53.072;6.582;2023-01-15T08:39:45;99366.53;;;5.72;67.83
73457;BME280;61691;53.072;6.582;2023-01-15T08:42:12;99355.09;;;5.64;67.85
73457;BME280;61691;53.072;6.582;2023-01-15T08:44:39;99321.75;;;5.45;68.72
73457;BME280;61691;53.072;6.582;2023-01-15T08:47:06;99380.53;;;5.73;69.02
73457;BME280;61691;53.072;6.582;2023-01-15T08:49:33;99359.38;;;5.55;69.71
73457;BME280;61691;53.072;6.582;2023-01-15T08:51:59;99344.13;;;5.49;69.86
73457;BME280;61691;53.072;6.582;2023-01-15T08:54:26;99350.09;;;5.51;69.70
73457;BME280;61691;53.072;6.582;2023-01-15T08:56:53;99371.56;;;5.56;69.78
73457;BME280;61691;53.072;6.582;2023-01-15T08:59:20;99364.91;;;5.52;70.08
73457;BME280;61691;53.072;6.582;2023-01-15T09:01:47;99350.25;;;5.40;70.69
73457;BME280;61691;53.072;6.582;2023-01-15T09:04:15;99370.28;;;5.60;70.42
73457;BME280;61691;53.072;6.582;2023-01-15T09:06:43;99375.28;;;5.63;70.64
73457;BME280;61691;53.072;6.582;2023-01-15T09:09:11;99370.44;;;5.59;70.73
73457;BME280;61691;53.072;6.582;2023-01-15T09:11:40;99320.66;;;5.19;70.75
73457;BME280;61691;53.072;6.582;2023-01-15T09:14:07;99358.81;;;5.52;71.03
73457;BME280;61691;53.072;6.582;2023-01-15T09:16:54;99350.22;;;5.50;71.28
73457;BME280;61691;53.072;6.582;2023-01-15T09:19:23;99322.00;;;5.42;71.50
73457;BME280;61691;53.072;6.582;2023-01-15T09:21:50;99358.13;;;5.59;71.51
73457;BME280;61691;53.072;6.582;2023-01-15T09:24:16;99372.25;;;5.49;71.37
73457;BME280;61691;53.072;6.582;2023-01-15T09:26:43;99369.88;;;5.65;71.39
73457;BME280;61691;53.072;6.582;2023-01-15T09:29:10;99333.22;;;5.44;71.72
73457;BME280;61691;53.072;6.582;2023-01-15T09:31:37;99374.03;;;5.67;72.23
73457;BME280;61691;53.072;6.582;2023-01-15T09:34:04;99348.88;;;5.55;71.64
73457;BME280;61691;53.072;6.582;2023-01-15T09:36:33;99376.09;;;5.73;72.27
73457;BME280;61691;53.072;6.582;2023-01-15T09:39:02;99381.78;;;5.69;72.17
73457;BME280;61691;53.072;6.582;2023-01-15T09:42:26;99368.22;;;5.73;72.26
73457;BME280;61691;53.072;6.582;2023-01-15T09:55:41;99372.03;;;6.27;72.43
73457;BME280;61691;53.072;6.582;2023-01-15T09:58:10;99350.13;;;6.27;72.06
73457;BME280;61691;53.072;6.582;2023-01-15T10:00:43;99341.72;;;6.23;71.67
73457;BME280;61691;53.072;6.582;2023-01-15T10:05:52;99358.47;;;6.22;72.43
73457;BME280;61691;53.072;6.582;2023-01-15T10:08:32;99329.28;;;6.06;72.61
73457;BME280;61691;53.072;6.582;2023-01-15T10:11:04;99359.31;;;6.13;72.55
73457;BME280;61691;53.072;6.582;2023-01-15T10:16:20;99325.56;;;6.08;72.94
73457;BME280;61691;53.072;6.582;2023-01-15T10:18:48;99354.88;;;6.23;72.66
73457;BME280;61691;53.072;6.582;2023-01-15T10:21:36;99353.88;;;6.24;72.75
73457;BME280;61691;53.072;6.582;2023-01-15T10:26:56;99346.81;;;6.25;72.81
73457;BME280;61691;53.072;6.582;2023-01-15T10:29:25;99340.16;;;6.30;73.05
73457;BME280;61691;53.072;6.582;2023-01-15T10:40:17;99328.41;;;6.25;72.83
73457;BME280;61691;53.072;6.582;2023-01-15T10:45:34;99313.44;;;6.25;72.82
73457;BME280;61691;53.072;6.582;2023-01-15T10:48:11;99344.09;;;6.53;72.96
73457;BME280;61691;53.072;6.582;2023-01-15T10:50:40;99350.44;;;6.60;72.84
73457;BME280;61691;53.072;6.582;2023-01-15T10:53:15;99341.41;;;6.63;72.41
73457;BME280;61691;53.072;6.582;2023-01-15T10:55:49;99341.94;;;6.67;72.87
73457;BME280;61691;53.072;6.582;2023-01-15T10:58:34;99341.63;;;6.70;72.89
73457;BME280;61691;53.072;6.582;2023-01-15T11:01:09;99328.38;;;6.61;72.77
73457;BME280;61691;53.072;6.582;2023-01-15T11:03:39;99344.28;;;6.70;72.20
73457;BME280;61691;53.072;6.582;2023-01-15T11:06:16;99347.50;;;6.64;72.31
73457;BME280;61691;53.072;6.582;2023-01-15T11:08:50;99341.53;;;6.61;72.14
73457;BME280;61691;53.072;6.582;2023-01-15T11:11:39;99338.84;;;6.53;72.32
73457;BME280;61691;53.072;6.582;2023-01-15T11:14:50;99328.31;;;6.53;72.60
73457;BME280;61691;53.072;6.582;2023-01-15T11:17:45;99338.97;;;6.52;72.23
73457;BME280;61691;53.072;6.582;2023-01-15T11:20:33;99329.56;;;6.49;72.65
73457;BME280;61691;53.072;6.582;2023-01-15T11:23:11;99325.38;;;6.56;72.91
73457;BME280;61691;53.072;6.582;2023-01-15T11:25:53;99291.63;;;6.42;72.68
73457;BME280;61691;53.072;6.582;2023-01-15T11:28:40;99305.97;;;6.57;72.70
73457;BME280;61691;53.072;6.582;2023-01-15T11:31:12;99335.53;;;6.69;72.92
73457;BME280;61691;53.072;6.582;2023-01-15T11:33:43;99311.41;;;6.74;72.44
73457;BME280;61691;53.072;6.582;2023-01-15T11:36:24;99320.28;;;6.73;72.94
73457;BME280;61691;53.072;6.582;2023-01-15T11:38:52;99299.22;;;6.73;72.95
73457;BME280;61691;53.072;6.582;2023-01-15T11:41:29;99320.47;;;6.89;72.74
73457;BME280;61691;53.072;6.582;2023-01-15T11:44:17;99314.91;;;6.92;72.81
73457;BME280;61691;53.072;6.582;2023-01-15T11:47:09;99317.88;;;7.07;72.54
73457;BME280;61691;53.072;6.582;2023-01-15T11:49:55;99297.03;;;7.13;71.97
73457;BME280;61691;53.072;6.582;2023-01-15T11:52:44;99298.06;;;7.20;72.08
73457;BME280;61691;53.072;6.582;2023-01-15T11:55:15;99299.28;;;7.26;71.59
73457;BME280;61691;53.072;6.582;2023-01-15T11:57:44;99301.63;;;7.29;71.07
73457;BME280;61691;53.072;6.582;2023-01-15T12:00:33;99289.31;;;7.37;71.19
73457;BME280;61691;53.072;6.582;2023-01-15T12:03:05;99279.03;;;7.44;70.60
73457;BME280;61691;53.072;6.582;2023-01-15T12:05:52;99272.16;;;7.33;69.09
73457;BME280;61691;53.072;6.582;2023-01-15T12:14:44;99284.59;;;7.41;70.08
73457;BME280;61691;53.072;6.582;2023-01-15T12:28:21;99225.84;;;7.31;69.78
73457;BME280;61691;53.072;6.582;2023-01-15T12:31:15;99267.09;;;7.58;69.57
73457;BME280;61691;53.072;6.582;2023-01-15T12:33:45;99286.38;;;7.58;69.50
73457;BME280;61691;53.072;6.582;2023-01-15T12:39:08;99285.84;;;7.55;69.15
73457;BME280;61691;53.072;6.582;2023-01-15T12:41:42;99283.47;;;7.44;69.76
73457;BME280;61691;53.072;6.582;2023-01-15T12:44:51;99276.53;;;7.43;69.58
73457;BME280;61691;53.072;6.582;2023-01-15T12:47:44;99310.19;;;7.49;69.87
73457;BME280;61691;53.072;6.582;2023-01-15T12:55:37;99323.88;;;7.52;70.00
73457;BME280;61691;53.072;6.582;2023-01-15T12:58:15;99305.66;;;7.41;70.23
73457;BME280;61691;53.072;6.582;2023-01-15T13:00:44;99299.13;;;7.27;70.48
73457;BME280;61691;53.072;6.582;2023-01-15T13:03:21;99314.03;;;7.36;70.48
73457;BME280;61691;53.072;6.582;2023-01-15T13:05:54;99311.47;;;7.27;70.80
73457;BME280;61691;53.072;6.582;2023-01-15T13:10:54;99352.13;;;7.24;71.27
73457;BME280;61691;53.072;6.582;2023-01-15T13:13:28;99358.97;;;7.17;71.77
73457;BME280;61691;53.072;6.582;2023-01-15T13:16:11;99367.75;;;7.08;72.74
73457;BME280;61691;53.072;6.582;2023-01-15T13:21:35;99342.53;;;6.60;72.72
73457;BME280;61691;53.072;6.582;2023-01-15T13:27:02;99371.66;;;6.49;74.09
73457;BME280;61691;53.072;6.582;2023-01-15T13:32:28;99387.00;;;6.17;74.35
73457;BME280;61691;53.072;6.582;2023-01-15T13:35:12;99368.03;;;6.23;74.98
73457;BME280;61691;53.072;6.582;2023-01-15T13:37:50;99395.88;;;6.16;74.86
73457;BME280;61691;53.072;6.582;2023-01-15T13:40:34;99376.78;;;5.95;75.44
73457;BME280;61691;53.072;6.582;2023-01-15T13:43:03;99354.34;;;5.81;76.45
73457;BME280;61691;53.072;6.582;2023-01-15T13:50:35;99419.69;;;5.95;77.03
73457;BME280;61691;53.072;6.582;2023-01-15T13:55:41;99421.94;;;6.00;76.92
73457;BME280;61691;53.072;6.582;2023-01-15T13:58:26;99413.75;;;6.03;77.25
73457;BME280;61691;53.072;6.582;2023-01-15T14:03:36;99402.53;;;5.81;77.05
73457;BME280;61691;53.072;6.582;2023-01-15T14:06:06;99434.13;;;6.01;77.32
73457;BME280;61691;53.072;6.582;2023-01-15T14:08:40;99421.09;;;5.99;77.42
73457;BME280;61691;53.072;6.582;2023-01-15T14:11:37;99447.28;;;6.01;77.71
73457;BME280;61691;53.072;6.582;2023-01-15T14:14:27;99438.38;;;6.02;77.75
73457;BME280;61691;53.072;6.582;2023-01-15T14:25:22;99436.59;;;6.12;78.12
73457;BME280;61691;53.072;6.582;2023-01-15T14:36:27;99458.72;;;6.19;77.90
73457;BME280;61691;53.072;6.582;2023-01-15T14:39:00;99456.09;;;6.29;78.53
73457;BME280;61691;53.072;6.582;2023-01-15T14:41:32;99418.03;;;5.94;78.33
73457;BME280;61691;53.072;6.582;2023-01-15T14:44:29;99452.50;;;6.20;78.44
73457;BME280;61691;53.072;6.582;2023-01-15T14:47:02;99464.13;;;6.27;78.58
73457;BME280;61691;53.072;6.582;2023-01-15T14:49:44;99426.06;;;6.02;78.79
73457;BME280;61691;53.072;6.582;2023-01-15T14:52:21;99482.53;;;6.37;78.89
73457;BME280;61691;53.072;6.582;2023-01-15T14:54:50;99491.94;;;6.39;78.60
73457;BME280;61691;53.072;6.582;2023-01-15T14:57:20;99465.66;;;6.20;78.93
73457;BME280;61691;53.072;6.582;2023-01-15T14:59:52;99502.63;;;6.38;79.02
73457;BME280;61691;53.072;6.582;2023-01-15T15:02:35;99465.91;;;6.17;78.73
73457;BME280;61691;53.072;6.582;2023-01-15T15:05:03;99477.84;;;6.21;78.95
73457;BME280;61691;53.072;6.582;2023-01-15T15:07:38;99493.34;;;6.34;78.90
73457;BME280;61691;53.072;6.582;2023-01-15T15:25:59;99521.47;;;6.24;79.24
73457;BME280;61691;53.072;6.582;2023-01-15T15:28:27;99519.66;;;6.24;79.55
73457;BME280;61691;53.072;6.582;2023-01-15T15:30:55;99524.91;;;6.24;79.37
73457;BME280;61691;53.072;6.582;2023-01-15T15:33:39;99537.25;;;6.33;79.63
73457;BME280;61691;53.072;6.582;2023-01-15T15:36:07;99504.44;;;6.08;79.66
73457;BME280;61691;53.072;6.582;2023-01-15T15:38:34;99528.94;;;6.18;79.07
73457;BME280;61691;53.072;6.582;2023-01-15T15:41:09;99556.63;;;6.32;79.41
73457;BME280;61691;53.072;6.582;2023-01-15T15:43:50;99562.06;;;6.31;79.43